Time;durP1;ratioP1;P1;durP2;ratioP2;P2;SDS_P1;SDS_P2;PMS_P1;PMS_P2;Temp;Humidity;BMP_temperature;BMP_pressure;BME280_temperature;BME280_humidity;BME280_pressure;Samples;Min_cycle;Max_cycle;Signal;HPM_P1;HPM_P2
2021/11/14 07:15:13;;;;;;;11.43;5.80;;;17.80;71.00;;;;;;5353782;23;20065;-73
2021/11/14 07:17:43;;;;;;;15.07;5.35;;;17.80;71.00;;;;;;4835776;29;20058;-73
2021/11/14 07:20:11;;;;;;;14.30;6.00;;;17.90;70.90;;;;;;4844903;29;20104;-74
2021/11/14 07:22:37;;;;;;;18.67;5.35;;;17.90;70.80;;;;;;4844456;29;20050;-75
2021/11/14 07:25:04;;;;;;;14.85;4.55;;;18.00;70.80;;;;;;4843919;29;20057;-76
2021/11/14 07:27:30;;;;;;;12.98;5.18;;;18.00;70.90;;;;;;4840855;29;20058;-69
2021/11/14 07:29:55;;;;;;;14.32;8.73;;;18.10;70.80;;;;;;4839457;29;20113;-72
2021/11/14 07:32:21;;;;;;;13.02;6.35;;;17.80;65.00;;;;;;4844558;29;20114;-72
2021/11/14 07:34:47;;;;;;;11.23;6.03;;;17.80;69.50;;;;;;4828510;29;20050;-72
2021/11/14 07:37:13;;;;;;;10.15;5.97;;;17.90;69.90;;;;;;4856374;29;20072;-75
2021/11/14 07:39:39;;;;;;;18.80;6.30;;;18.00;69.80;;;;;;4827823;29;20132;-74
2021/11/14 07:42:05;;;;;;;14.88;6.40;;;17.90;69.10;;;;;;4844341;29;20052;-75
2021/11/14 07:44:31;;;;;;;15.23;6.00;;;18.00;69.80;;;;;;4828479;29;20053;-76
2021/11/14 07:46:57;;;;;;;16.23;6.13;;;18.10;69.80;;;;;;4844141;29;20422;-75
2021/11/14 07:49:22;;;;;;;14.82;6.78;;;18.20;69.60;;;;;;4839980;29;20365;-71
2021/11/14 07:51:48;;;;;;;19.55;7.25;;;18.30;69.70;;;;;;4823755;29;20050;-77
2021/11/14 07:54:15;;;;;;;13.60;6.60;;;18.30;69.20;;;;;;4825287;29;20097;-76
2021/11/14 07:56:40;;;;;;;42.35;9.45;;;18.30;69.40;;;;;;4828069;29;20057;-76
2021/11/14 07:59:06;;;;;;;37.53;8.70;;;18.40;69.50;;;;;;4844124;29;20464;-77
2021/11/14 08:01:32;;;;;;;40.30;8.35;;;18.40;69.40;;;;;;4844099;29;20042;-77
2021/11/14 08:03:58;;;;;;;32.33;7.60;;;18.40;69.30;;;;;;4844215;29;20053;-77
2021/11/14 08:06:23;;;;;;;36.53;8.73;;;18.50;69.20;;;;;;4844437;29;20057;-77
2021/11/14 08:08:49;;;;;;;32.22;7.63;;;18.50;69.20;;;;;;4828822;29;20106;-75
2021/11/14 08:11:15;;;;;;;27.58;6.68;;;18.50;69.00;;;;;;4843912;29;20097;-76
2021/11/14 08:13:41;;;;;;;21.73;6.80;;;18.40;69.60;;;;;;4828152;29;20050;-78
2021/11/14 08:16:07;;;;;;;26.45;6.90;;;18.50;69.10;;;;;;4843100;29;20069;-77
2021/11/14 08:18:33;;;;;;;24.95;6.22;;;18.50;69.20;;;;;;4841987;29;20042;-75
2021/11/14 08:20:59;;;;;;;22.67;7.97;;;18.50;69.50;;;;;;4843603;29;20126;-76
2021/11/14 08:23:26;;;;;;;19.58;7.95;;;18.50;68.80;;;;;;4827772;29;20062;-74
2021/11/14 08:25:52;;;;;;;18.25;8.52;;;18.50;68.30;;;;;;4828180;29;20116;-76
2021/11/14 08:28:19;;;;;;;19.85;8.73;;;18.50;67.80;;;;;;4844236;29;20061;-75
2021/11/14 08:30:44;;;;;;;23.83;8.88;;;18.50;67.70;;;;;;4828107;29;20050;-77
2021/11/14 08:33:11;;;;;;;24.30;7.93;;;18.40;67.60;;;;;;4828313;29;20050;-76
2021/11/14 08:35:38;;;;;;;24.63;8.55;;;18.50;67.60;;;;;;4838532;29;20377;-78
2021/11/14 08:38:05;;;;;;;19.95;7.70;;;18.50;67.70;;;;;;4811579;29;20449;-77
2021/11/14 08:40:33;;;;;;;26.75;7.40;;;18.50;67.70;;;;;;4830088;29;20058;-76
2021/11/14 08:43:01;;;;;;;16.05;6.22;;;18.50;67.70;;;;;;4837546;29;20058;-80
2021/11/14 08:45:29;;;;;;;12.98;6.40;;;18.50;67.90;;;;;;4827747;29;20047;-76
2021/11/14 08:47:56;;;;;;;19.48;6.95;;;18.50;67.90;;;;;;4812082;29;20069;-74
2021/11/14 08:50:22;;;;;;;23.95;8.50;;;18.60;67.90;;;;;;4836228;29;20179;-78
2021/11/14 08:52:48;;;;;;;17.27;9.55;;;18.60;67.40;;;;;;4847339;29;20042;-76
2021/11/14 08:55:19;;;;;;;22.98;9.75;;;18.60;67.00;;;;;;4830848;29;20045;-77
2021/11/14 08:57:46;;;;;;;18.40;10.65;;;18.70;66.50;;;;;;4847175;29;20050;-77
2021/11/14 09:00:15;;;;;;;19.17;11.07;;;18.70;66.30;;;;;;4847259;29;20203;-77
2021/11/14 09:02:44;;;;;;;15.80;10.48;;;18.70;65.90;;;;;;4828561;29;20057;-78
2021/11/14 09:05:10;;;;;;;16.48;10.85;;;18.60;65.50;;;;;;4831618;29;20046;-83
2021/11/14 09:07:35;;;;;;;16.67;11.05;;;18.70;65.00;;;;;;4849159;29;20121;-79
2021/11/14 09:10:02;;;;;;;15.63;10.23;;;18.70;64.60;;;;;;4834364;29;20475;-78
2021/11/14 09:12:28;;;;;;;12.98;8.98;;;18.80;64.90;;;;;;4820295;29;20438;-77
2021/11/14 09:14:56;;;;;;;17.55;10.05;;;18.70;65.00;;;;;;4827190;29;20057;-76
2021/11/14 09:17:23;;;;;;;14.65;9.27;;;18.80;65.40;;;;;;4828274;29;20058;-75
2021/11/14 09:19:49;;;;;;;15.93;10.05;;;18.80;65.60;;;;;;4828510;29;20066;-77
2021/11/14 09:22:15;;;;;;;14.57;9.52;;;18.90;65.90;;;;;;4827394;29;20050;-81
2021/11/14 09:24:41;;;;;;;15.18;8.57;;;18.90;66.10;;;;;;4827394;29;20050;-77
2021/11/14 09:27:07;;;;;;;17.58;9.45;;;18.90;66.10;;;;;;4837645;29;20046;-77
2021/11/14 09:29:34;;;;;;;20.45;10.82;;;18.90;66.20;;;;;;4830521;29;20128;-78
2021/11/14 09:32:00;;;;;;;25.45;10.88;;;18.90;66.10;;;;;;4846705;29;20053;-75
2021/11/14 09:34:25;;;;;;;16.00;9.90;;;18.90;66.00;;;;;;4830266;29;20054;-76
2021/11/14 09:36:52;;;;;;;15.18;9.98;;;18.90;65.90;;;;;;4846181;29;20354;-76
2021/11/14 09:39:18;;;;;;;19.63;10.75;;;18.90;65.60;;;;;;4830662;29;20126;-77
2021/11/14 09:41:46;;;;;;;17.67;11.85;;;18.80;65.40;;;;;;4846255;29;20129;-76
2021/11/14 09:44:15;;;;;;;18.05;11.68;;;18.80;65.50;;;;;;4844545;29;20050;-77
2021/11/14 09:46:46;;;;;;;17.42;12.30;;;18.80;65.10;;;;;;4830264;29;20114;-77
2021/11/14 09:49:11;;;;;;;20.88;13.18;;;18.70;64.70;;;;;;4863661;29;20371;-73
2021/11/14 09:51:37;;;;;;;15.63;11.93;;;18.70;64.40;;;;;;4864613;29;20137;-74
2021/11/14 09:54:03;;;;;;;16.60;12.13;;;18.70;64.10;;;;;;4864505;29;20132;-75
2021/11/14 09:56:29;;;;;;;16.75;12.02;;;18.60;64.10;;;;;;4864674;29;20067;-74
2021/11/14 09:58:55;;;;;;;24.17;12.88;;;18.60;64.50;;;;;;4864657;29;20434;-74
2021/11/14 10:01:20;;;;;;;15.63;11.80;;;18.50;64.80;;;;;;4845647;29;20142;-73
2021/11/14 10:03:46;;;;;;;22.10;12.00;;;18.40;65.10;;;;;;4829812;29;20060;-74
2021/11/14 10:06:12;;;;;;;17.20;11.70;;;18.40;65.50;;;;;;4846186;29;20053;-74
2021/11/14 10:08:42;;;;;;;18.88;11.27;;;18.30;66.30;;;;;;4846200;29;20090;-75
2021/11/14 10:11:08;;;;;;;16.55;9.93;;;18.30;66.10;;;;;;4846543;29;20060;-75
2021/11/14 10:13:36;;;;;;;18.23;10.75;;;18.30;66.40;;;;;;4845928;29;20121;-74
2021/11/14 10:16:11;;;;;;;14.35;9.98;;;18.20;66.60;;;;;;4845674;29;20408;-75
2021/11/14 10:18:39;;;;;;;21.35;11.05;;;18.20;66.80;;;;;;4845738;29;20367;-74
2021/11/14 10:21:05;;;;;;;20.95;10.93;;;18.10;67.00;;;;;;4848551;29;20072;-75
2021/11/14 10:23:33;;;;;;;15.90;10.55;;;18.10;67.30;;;;;;4864216;29;20144;-75
2021/11/14 10:26:06;;;;;;;16.45;10.35;;;18.10;67.50;;;;;;4846921;29;20473;-75
2021/11/14 10:28:32;;;;;;;16.70;10.25;;;18.00;67.70;;;;;;4845557;29;20062;-73
2021/11/14 10:30:59;;;;;;;21.90;11.13;;;18.00;67.80;;;;;;4844578;29;20071;-75
2021/11/14 10:33:26;;;;;;;18.25;10.52;;;18.00;67.90;;;;;;4845491;29;20054;-77
2021/11/14 10:35:55;;;;;;;19.52;10.60;;;18.00;68.10;;;;;;4829452;29;20049;-77
2021/11/14 10:38:24;;;;;;;20.48;11.43;;;18.00;68.30;;;;;;4813969;29;20045;-77
2021/11/14 10:41:00;;;;;;;21.77;10.73;;;17.90;68.60;;;;;;4845252;29;20469;-77
2021/11/14 10:43:28;;;;;;;19.42;11.23;;;17.90;69.00;;;;;;4845537;29;20042;-79
2021/11/14 10:45:56;;;;;;;23.60;10.77;;;17.90;69.30;;;;;;4845527;29;20046;-78
2021/11/14 10:48:24;;;;;;;21.55;10.75;;;17.90;69.40;;;;;;4828877;29;20057;-77
2021/11/14 10:50:55;;;;;;;16.52;9.75;;;17.90;69.80;;;;;;4828961;29;20054;-76
2021/11/14 10:53:24;;;;;;;20.63;10.82;;;17.90;70.00;;;;;;4828863;29;20520;-75
2021/11/14 10:56:07;;;;;;;14.77;10.43;;;17.80;70.10;;;;;;4845301;29;20072;-75
2021/11/14 10:58:36;;;;;;;24.13;11.13;;;17.80;70.50;;;;;;4845100;29;20360;-76
2021/11/14 11:01:09;;;;;;;18.58;10.27;;;17.70;70.50;;;;;;4844344;29;20068;-76
2021/11/14 11:03:37;;;;;;;16.75;11.13;;;17.70;70.70;;;;;;4845129;29;20064;-74
2021/11/14 11:06:05;;;;;;;19.20;10.10;;;17.70;70.70;;;;;;4844828;29;20054;-78
2021/11/14 11:08:31;;;;;;;18.23;10.27;;;17.70;70.80;;;;;;4829050;29;20125;-73
2021/11/14 11:11:00;;;;;;;18.10;11.38;;;17.70;70.70;;;;;;4844998;29;20382;-73
2021/11/14 11:13:42;;;;;;;14.68;10.20;;;17.70;70.60;;;;;;4845008;29;20054;-73
2021/11/14 11:16:11;;;;;;;21.70;10.00;;;17.70;70.70;;;;;;4828767;29;20073;-72
2021/11/14 11:18:38;;;;;;;13.65;9.80;;;17.70;70.60;;;;;;4844582;29;20053;-74
2021/11/14 11:21:06;;;;;;;20.70;9.73;;;17.90;70.70;;;;;;4844434;29;20068;-73
2021/11/14 11:23:44;;;;;;;16.15;9.50;;;18.00;70.50;;;;;;4844592;29;20085;-73
2021/11/14 11:26:12;;;;;;;11.50;8.55;;;18.10;70.30;;;;;;4844672;29;20128;-73
2021/11/14 11:28:42;;;;;;;14.35;8.77;;;18.20;70.00;;;;;;4844777;29;20109;-73
2021/11/14 11:31:18;;;;;;;13.73;8.32;;;18.30;70.30;;;;;;4844454;29;20042;-73
2021/11/14 11:33:48;;;;;;;12.90;8.60;;;18.50;69.50;;;;;;4844561;29;20583;-73
2021/11/14 11:36:15;;;;;;;12.77;8.25;;;18.60;69.30;;;;;;4828702;29;20054;-73
2021/11/14 11:38:45;;;;;;;14.13;9.05;;;18.60;69.10;;;;;;4840657;29;20060;-74
2021/11/14 11:41:13;;;;;;;15.35;10.85;;;18.70;68.50;;;;;;4862952;29;20512;-72
2021/11/14 11:43:40;;;;;;;19.58;11.13;;;18.70;67.80;;;;;;4837747;29;20373;-72
2021/11/14 11:46:12;;;;;;;17.67;9.73;;;18.60;67.90;;;;;;4828570;29;20049;-73
2021/11/14 11:48:44;;;;;;;16.13;9.63;;;18.60;67.90;;;;;;4844349;29;20061;-73
2021/11/14 11:51:15;;;;;;;11.38;8.50;;;18.70;68.20;;;;;;4828091;29;20057;-74
2021/11/14 11:53:43;;;;;;;14.43;8.73;;;18.20;68.30;;;;;;4844143;29;20231;-75
2021/11/14 11:56:16;;;;;;;21.08;9.73;;;18.10;69.50;;;;;;4844123;29;20462;-76
2021/11/14 11:58:48;;;;;;;19.90;8.77;;;18.20;69.90;;;;;;4844303;29;20116;-79
2021/11/14 12:01:34;;;;;;;24.98;9.30;;;18.30;69.90;;;;;;4827973;29;20064;-79
2021/11/14 12:04:33;;;;;;;24.20;9.52;;;18.40;69.80;;;;;;4844236;29;20058;-79
2021/11/14 12:07:10;;;;;;;15.95;8.73;;;18.50;69.90;;;;;;4814837;29;20136;-78
2021/11/14 12:09:48;;;;;;;20.10;8.68;;;18.60;70.00;;;;;;4845766;29;20062;-79
2021/11/14 12:12:23;;;;;;;16.60;8.80;;;18.60;70.00;;;;;;4830892;29;20136;-77
2021/11/14 12:15:13;;;;;;;19.40;8.32;;;18.60;70.10;;;;;;4831745;29;20110;-79
2021/11/14 12:17:46;;;;;;;18.60;8.50;;;18.60;70.10;;;;;;4847409;29;20070;-79
2021/11/14 12:20:15;;;;;;;22.15;9.00;;;18.60;70.10;;;;;;4831478;29;20054;-79
2021/11/14 12:22:50;;;;;;;18.45;8.88;;;18.60;70.30;;;;;;4831483;29;20590;-78
2021/11/14 12:25:38;;;;;;;17.67;8.52;;;18.60;70.40;;;;;;4847759;29;20122;-79
2021/11/14 12:28:12;;;;;;;15.98;9.10;;;18.50;70.50;;;;;;4847465;29;20054;-78
2021/11/14 12:30:46;;;;;;;11.60;8.38;;;18.50;70.80;;;;;;4847752;29;20062;-78
2021/11/14 12:33:30;;;;;;;14.38;7.97;;;18.50;71.00;;;;;;4831167;29;20050;-77
2021/11/14 12:36:09;;;;;;;15.38;8.88;;;18.40;71.20;;;;;;4847420;29;20060;-78
2021/11/14 12:38:36;;;;;;;17.33;7.80;;;18.40;71.30;;;;;;4831357;29;20064;-80
2021/11/14 12:41:06;;;;;;;14.68;7.32;;;18.30;71.40;;;;;;4847302;29;20184;-80
2021/11/14 12:43:36;;;;;;;13.70;7.75;;;18.30;71.60;;;;;;4813675;29;20137;-78
2021/11/14 12:46:09;;;;;;;13.80;7.55;;;18.30;71.60;;;;;;4825618;29;20119;-80
2021/11/14 12:48:37;;;;;;;16.85;8.15;;;18.30;71.50;;;;;;4827814;29;20137;-82
2021/11/14 12:51:27;;;;;;;17.90;8.00;;;18.30;71.60;;;;;;4827856;29;20050;-79
2021/11/14 12:53:59;;;;;;;11.75;7.22;;;18.30;71.60;;;;;;4828914;29;20054;-79
2021/11/14 12:56:35;;;;;;;10.48;7.35;;;18.30;71.50;;;;;;4829410;29;20060;-76
2021/11/14 12:59:21;;;;;;;13.50;7.70;;;18.30;71.40;;;;;;4848969;29;20103;-77
2021/11/14 13:01:57;;;;;;;11.88;8.18;;;18.30;71.30;;;;;;4855365;29;20120;-74
2021/11/14 13:04:29;;;;;;;12.45;8.30;;;18.40;70.70;;;;;;4830697;29;20054;-75
2021/11/14 13:06:57;;;;;;;14.55;8.63;;;18.40;70.30;;;;;;4847030;29;20501;-76
2021/11/14 13:09:25;;;;;;;12.60;7.10;;;18.40;70.30;;;;;;4830678;29;20058;-75
2021/11/14 13:12:03;;;;;;;13.57;8.02;;;18.40;70.80;;;;;;4846751;29;20099;-75
2021/11/14 13:14:33;;;;;;;16.15;7.05;;;18.30;70.20;;;;;;4830134;29;20058;-75
2021/11/14 13:16:59;;;;;;;21.48;7.28;;;18.40;70.30;;;;;;4846182;29;20549;-78
2021/11/14 13:19:25;;;;;;;16.67;7.35;;;18.40;70.30;;;;;;4830185;29;20138;-78
2021/11/14 13:21:51;;;;;;;12.20;6.80;;;18.30;70.40;;;;;;4846006;29;20130;-73
2021/11/14 13:24:20;;;;;;;12.65;7.25;;;18.30;70.60;;;;;;4845518;29;20114;-74
2021/11/14 13:26:48;;;;;;;11.73;6.40;;;18.40;70.60;;;;;;4830246;29;20050;-73
2021/11/14 13:29:19;;;;;;;14.20;7.22;;;18.40;70.50;;;;;;4846830;29;20053;-73
2021/11/14 13:31:52;;;;;;;12.40;6.38;;;18.40;70.30;;;;;;4846660;29;20089;-74
2021/11/14 13:34:23;;;;;;;17.30;6.15;;;18.50;70.20;;;;;;4847185;29;20445;-74
2021/11/14 13:37:04;;;;;;;12.95;6.45;;;18.50;70.10;;;;;;4846011;29;20096;-74
2021/11/14 13:39:43;;;;;;;19.10;6.30;;;18.60;70.00;;;;;;4847203;29;20420;-73
2021/11/14 13:42:13;;;;;;;13.27;6.75;;;18.60;70.00;;;;;;4846477;29;20137;-73
2021/11/14 13:45:06;;;;;;;19.27;6.45;;;18.50;69.70;;;;;;4845272;29;20057;-73
2021/11/14 13:47:37;;;;;;;20.60;6.73;;;18.60;69.80;;;;;;4846099;29;20487;-74
2021/11/14 13:50:05;;;;;;;11.73;6.38;;;18.60;70.00;;;;;;4846112;29;20118;-73
2021/11/14 13:52:31;;;;;;;12.88;6.22;;;18.60;70.10;;;;;;4846277;29;20065;-73
2021/11/14 13:55:00;;;;;;;12.98;6.25;;;18.60;70.20;;;;;;4845762;29;20056;-71
2021/11/14 13:57:30;;;;;;;11.80;6.50;;;18.60;70.40;;;;;;4830273;29;20049;-75
2021/11/14 13:59:58;;;;;;;13.57;5.53;;;18.40;69.30;;;;;;4846020;29;20118;-73
2021/11/14 14:02:27;;;;;;;13.02;6.07;;;18.50;70.60;;;;;;4846327;29;20057;-73
2021/11/14 14:05:00;;;;;;;15.63;6.15;;;18.50;71.10;;;;;;4830059;29;20514;-77
2021/11/14 14:07:29;;;;;;;18.75;6.55;;;18.60;71.30;;;;;;4830076;29;20090;-74
2021/11/14 14:10:03;;;;;;;13.52;6.55;;;18.60;71.10;;;;;;4845608;29;20427;-75
2021/11/14 14:12:30;;;;;;;17.48;6.88;;;18.60;70.90;;;;;;4846018;29;20065;-75
2021/11/14 14:14:58;;;;;;;15.43;6.30;;;18.50;70.70;;;;;;4845967;29;20054;-74
2021/11/14 14:17:27;;;;;;;13.15;6.25;;;18.50;70.80;;;;;;4845831;29;20144;-75
2021/11/14 14:19:54;;;;;;;15.80;6.38;;;18.50;70.90;;;;;;4845620;29;20072;-74
2021/11/14 14:22:32;;;;;;;10.52;6.15;;;18.50;71.00;;;;;;4845818;29;20434;-74
2021/11/14 14:24:59;;;;;;;12.70;6.40;;;18.40;71.00;;;;;;4845789;29;20133;-74
2021/11/14 14:27:26;;;;;;;13.13;6.05;;;18.40;71.10;;;;;;4845740;29;20124;-74
2021/11/14 14:30:18;;;;;;;17.50;6.68;;;18.40;71.20;;;;;;4845073;29;20046;-74
2021/11/14 14:32:56;;;;;;;10.48;5.90;;;18.30;71.20;;;;;;4845077;29;20458;-74
2021/11/14 14:35:26;;;;;;;8.80;5.80;;;18.30;71.40;;;;;;4846093;29;20106;-75
2021/11/14 14:38:05;;;;;;;10.07;5.63;;;18.30;71.50;;;;;;4845513;29;20130;-74
2021/11/14 14:40:54;;;;;;;10.82;5.85;;;18.20;71.40;;;;;;4845654;29;20073;-74
2021/11/14 14:43:29;;;;;;;7.20;5.35;;;18.20;71.50;;;;;;4846257;29;20373;-74
2021/11/14 14:45:57;;;;;;;9.02;5.32;;;18.20;71.70;;;;;;4845465;29;20056;-74
2021/11/14 14:48:26;;;;;;;12.85;5.05;;;18.10;71.80;;;;;;4845668;29;20042;-74
2021/11/14 14:51:00;;;;;;;8.55;5.13;;;18.10;71.80;;;;;;4844960;29;20058;-74
2021/11/14 14:53:38;;;;;;;9.38;6.00;;;18.10;71.90;;;;;;4845543;29;20050;-74
2021/11/14 14:56:14;;;;;;;8.45;5.35;;;18.10;72.00;;;;;;4845392;29;20122;-75
2021/11/14 14:59:07;;;;;;;9.15;5.22;;;18.00;72.00;;;;;;4844671;29;20083;-74
2021/11/14 15:01:39;;;;;;;8.70;5.80;;;18.00;72.20;;;;;;4845502;29;20053;-74
2021/11/14 15:04:13;;;;;;;8.77;6.00;;;18.00;72.30;;;;;;4845270;29;20346;-75
2021/11/14 15:06:41;;;;;;;8.90;6.05;;;18.10;72.40;;;;;;4845005;29;20060;-74
2021/11/14 15:09:20;;;;;;;9.35;6.03;;;18.10;72.30;;;;;;4844766;29;20046;-74
2021/11/14 15:11:50;;;;;;;7.35;5.20;;;18.10;72.30;;;;;;4845233;29;20061;-74
2021/11/14 15:14:16;;;;;;;7.72;5.65;;;18.10;72.20;;;;;;4844909;29;20058;-75
2021/11/14 15:16:41;;;;;;;8.35;5.13;;;18.10;72.20;;;;;;4844688;29;20065;-74
2021/11/14 15:19:18;;;;;;;9.68;5.45;;;18.10;72.20;;;;;;4844264;29;20053;-74
2021/11/14 15:21:44;;;;;;;9.38;5.10;;;18.00;72.30;;;;;;4844723;29;20049;-74
2021/11/14 15:24:11;;;;;;;8.77;5.82;;;18.10;72.40;;;;;;4845110;29;20057;-74
2021/11/14 15:26:40;;;;;;;6.93;4.88;;;18.00;72.40;;;;;;4844118;29;20050;-74
2021/11/14 15:29:06;;;;;;;7.25;5.38;;;18.00;72.50;;;;;;4843297;29;20122;-75
2021/11/14 15:31:32;;;;;;;9.88;5.90;;;18.00;72.50;;;;;;4832250;29;20054;-75
2021/11/14 15:33:58;;;;;;;11.77;6.20;;;18.00;72.60;;;;;;4842276;29;20057;-81
2021/11/14 15:36:23;;;;;;;16.13;6.40;;;18.00;72.60;;;;;;4842972;29;20121;-77
2021/11/14 15:38:49;;;;;;;10.80;6.60;;;18.00;72.60;;;;;;4839843;29;20077;-78
2021/11/14 15:41:15;;;;;;;12.90;5.78;;;18.10;72.70;;;;;;4828224;29;20065;-74
2021/11/14 15:43:41;;;;;;;17.65;6.40;;;18.10;72.70;;;;;;4826296;29;20050;-76
2021/11/14 15:46:07;;;;;;;13.65;5.57;;;18.20;72.70;;;;;;4825582;29;20050;-76
2021/11/14 15:48:32;;;;;;;15.93;6.53;;;18.30;72.60;;;;;;4831699;29;20046;-80
2021/11/14 15:50:58;;;;;;;13.82;8.05;;;18.30;72.30;;;;;;4827512;29;20050;-75
2021/11/14 15:53:26;;;;;;;18.70;7.97;;;18.30;71.90;;;;;;4844156;29;20421;-73
2021/11/14 15:55:54;;;;;;;15.10;7.80;;;18.40;71.20;;;;;;4844354;29;20343;-77
2021/11/14 15:58:20;;;;;;;19.85;8.55;;;18.50;70.90;;;;;;4844222;29;20369;-75
2021/11/14 16:00:50;;;;;;;13.77;7.00;;;18.60;70.80;;;;;;4841284;29;20069;-75
2021/11/14 16:03:15;;;;;;;16.00;7.55;;;18.60;70.80;;;;;;4843508;29;20057;-73
2021/11/14 16:05:41;;;;;;;14.63;7.40;;;18.70;70.90;;;;;;4813334;29;20054;-76
2021/11/14 16:08:07;;;;;;;15.98;7.32;;;18.70;71.10;;;;;;4844262;29;20058;-73
2021/11/14 16:10:34;;;;;;;11.88;7.20;;;18.70;71.40;;;;;;4843412;29;20074;-77
2021/11/14 16:13:01;;;;;;;14.93;7.45;;;18.70;71.60;;;;;;4844273;29;20144;-76
2021/11/14 16:15:28;;;;;;;12.75;6.38;;;18.70;71.80;;;;;;4842440;29;20425;-75
2021/11/14 16:17:54;;;;;;;15.40;7.25;;;18.70;71.90;;;;;;4838995;29;20125;-74
2021/11/14 16:20:23;;;;;;;15.93;7.97;;;18.70;72.20;;;;;;4862851;29;20133;-73
2021/11/14 16:22:50;;;;;;;15.95;8.93;;;18.70;73.00;;;;;;4858569;29;20072;-77
2021/11/14 16:25:16;;;;;;;21.10;9.70;;;18.70;74.50;;;;;;4851369;29;20046;-81
2021/11/14 16:27:44;;;;;;;17.60;7.50;;;18.70;75.50;;;;;;4812787;29;20096;-76
2021/11/14 16:30:12;;;;;;;21.52;10.27;;;18.60;74.20;;;;;;4812921;29;20073;-79
2021/11/14 16:32:38;;;;;;;17.15;9.95;;;18.60;74.20;;;;;;4842385;29;20442;-78
2021/11/14 16:35:04;;;;;;;15.65;9.20;;;18.60;74.00;;;;;;4827805;29;20133;-86
2021/11/14 16:37:30;;;;;;;24.65;10.35;;;18.60;74.00;;;;;;4825757;29;20050;-80
2021/11/14 16:39:55;;;;;;;22.55;11.98;;;18.60;73.60;;;;;;4835567;29;20057;-81
2021/11/14 16:42:24;;;;;;;24.17;12.60;;;18.50;73.10;;;;;;4827545;29;20559;-83
2021/11/14 16:44:51;;;;;;;23.65;12.93;;;18.60;72.60;;;;;;4810371;29;20048;-77
2021/11/14 16:47:17;;;;;;;21.40;13.35;;;18.60;72.30;;;;;;4827697;29;20042;-84
2021/11/14 16:49:48;;;;;;;23.58;13.90;;;18.60;71.70;;;;;;4811917;29;20472;-88
2021/11/14 16:52:14;;;;;;;26.17;15.20;;;18.60;71.10;;;;;;4827646;29;20053;-75
2021/11/14 16:54:40;;;;;;;24.50;14.90;;;18.60;70.90;;;;;;4843934;29;20060;-75
2021/11/14 16:57:06;;;;;;;23.55;13.55;;;18.50;70.10;;;;;;4842843;29;20042;-75
2021/11/14 16:59:33;;;;;;;24.33;14.02;;;18.50;70.10;;;;;;4845530;29;20061;-75
2021/11/14 17:01:59;;;;;;;27.73;12.95;;;18.40;70.40;;;;;;4847285;29;20049;-75
2021/11/14 17:04:24;;;;;;;22.45;13.75;;;18.40;71.10;;;;;;4847182;29;20050;-75
2021/11/14 17:06:50;;;;;;;23.20;13.07;;;18.40;71.60;;;;;;4847294;29;20052;-76
2021/11/14 17:09:16;;;;;;;20.92;13.00;;;18.40;71.90;;;;;;4846611;29;20060;-75
2021/11/14 17:11:42;;;;;;;22.50;12.05;;;18.30;72.10;;;;;;4830609;29;20133;-75
2021/11/14 17:14:08;;;;;;;22.35;12.68;;;18.30;72.40;;;;;;4847338;29;20053;-76
2021/11/14 17:16:34;;;;;;;21.75;12.02;;;18.30;72.70;;;;;;4846555;29;20061;-76
2021/11/14 17:19:00;;;;;;;23.70;12.10;;;18.30;73.00;;;;;;4846341;29;20389;-78
2021/11/14 17:21:27;;;;;;;22.77;11.82;;;18.30;73.30;;;;;;4846714;29;20065;-76
2021/11/14 17:23:54;;;;;;;23.48;12.70;;;18.20;73.60;;;;;;4847002;29;20128;-77
2021/11/14 17:26:22;;;;;;;19.95;11.88;;;18.30;73.80;;;;;;4830767;29;20488;-77
2021/11/14 17:28:49;;;;;;;22.65;10.75;;;18.20;73.90;;;;;;4846372;29;20054;-77
2021/11/14 17:31:15;;;;;;;24.02;11.75;;;18.20;74.20;;;;;;4846770;29;20463;-77
2021/11/14 17:33:41;;;;;;;22.92;12.02;;;18.10;74.40;;;;;;4846597;29;20130;-77
2021/11/14 17:36:07;;;;;;;21.65;11.55;;;18.10;74.50;;;;;;4846733;29;20136;-75
2021/11/14 17:38:33;;;;;;;18.10;10.32;;;18.10;74.80;;;;;;4846742;29;20050;-77
2021/11/14 17:40:58;;;;;;;25.00;10.48;;;18.10;74.80;;;;;;4829932;29;20513;-77
2021/11/14 17:43:24;;;;;;;25.83;11.35;;;18.10;75.00;;;;;;4830790;29;20118;-77
2021/11/14 17:45:51;;;;;;;21.25;11.82;;;18.00;75.10;;;;;;4846682;29;20137;-76
2021/11/14 17:48:17;;;;;;;21.80;10.48;;;18.00;75.30;;;;;;4846198;29;20060;-75
2021/11/14 17:50:43;;;;;;;23.05;10.70;;;18.10;75.50;;;;;;4846661;29;20045;-75
2021/11/14 17:53:09;;;;;;;19.23;10.55;;;18.00;75.60;;;;;;4846663;29;20050;-75
2021/11/14 17:55:36;;;;;;;20.48;10.77;;;18.00;75.70;;;;;;4846273;29;20061;-75
2021/11/14 17:58:03;;;;;;;20.98;11.20;;;18.00;75.80;;;;;;4845050;29;20474;-75
2021/11/14 18:00:29;;;;;;;19.77;10.52;;;17.90;75.90;;;;;;4846388;29;20058;-75
2021/11/14 18:02:55;;;;;;;22.75;11.35;;;17.90;76.00;;;;;;4845809;29;20133;-75
2021/11/14 18:05:24;;;;;;;26.00;11.50;;;17.90;76.10;;;;;;4846130;29;20086;-75
2021/11/14 18:07:49;;;;;;;22.17;10.70;;;17.90;76.20;;;;;;4846757;29;20399;-75
2021/11/14 18:10:16;;;;;;;27.77;11.40;;;17.90;76.30;;;;;;4845737;29;20050;-75
2021/11/14 18:12:42;;;;;;;22.50;11.63;;;17.90;76.30;;;;;;4845470;29;20135;-75
2021/11/14 18:15:09;;;;;;;18.33;10.43;;;17.90;76.40;;;;;;4846010;29;20358;-75
2021/11/14 18:17:35;;;;;;;23.70;10.50;;;17.90;76.40;;;;;;4845647;29;20141;-75
2021/11/14 18:20:01;;;;;;;22.90;9.90;;;17.90;76.50;;;;;;4846165;29;20145;-75
2021/11/14 18:22:27;;;;;;;15.38;9.52;;;17.90;76.40;;;;;;4845406;29;20081;-75
2021/11/14 18:24:53;;;;;;;20.33;10.65;;;17.90;76.20;;;;;;4845427;29;20046;-75
2021/11/14 18:27:19;;;;;;;19.83;10.57;;;17.80;76.00;;;;;;4845834;29;20096;-75
2021/11/14 18:29:45;;;;;;;18.23;10.10;;;17.90;76.00;;;;;;4846055;29;20081;-74
2021/11/14 18:32:11;;;;;;;18.55;10.00;;;17.80;75.80;;;;;;4845410;29;20117;-75
2021/11/14 18:34:37;;;;;;;21.67;10.50;;;17.80;75.70;;;;;;4845475;29;20046;-74
2021/11/14 18:37:03;;;;;;;18.00;11.18;;;17.80;75.60;;;;;;4845202;29;20089;-74
2021/11/14 18:39:29;;;;;;;17.58;10.98;;;17.80;75.40;;;;;;4845374;29;20092;-75
2021/11/14 18:41:56;;;;;;;16.88;9.98;;;17.80;75.30;;;;;;4845103;29;20096;-75
2021/11/14 18:44:23;;;;;;;15.88;10.48;;;17.80;75.20;;;;;;4845388;29;20050;-74
2021/11/14 18:46:49;;;;;;;17.42;9.90;;;17.80;75.20;;;;;;4845560;29;20065;-75
2021/11/14 18:49:15;;;;;;;17.38;11.25;;;17.70;75.10;;;;;;4843331;29;20125;-76
2021/11/14 18:51:41;;;;;;;19.15;11.63;;;17.60;73.70;;;;;;4840433;29;20128;-75
2021/11/14 18:54:07;;;;;;;19.20;10.43;;;17.60;73.50;;;;;;4845623;29;20085;-73
2021/11/14 18:56:32;;;;;;;18.17;9.90;;;17.60;74.60;;;;;;4845277;29;20466;-77
2021/11/14 18:59:01;;;;;;;15.68;10.10;;;17.60;75.00;;;;;;4843373;29;20065;-77
2021/11/14 19:01:27;;;;;;;15.38;10.05;;;17.60;75.30;;;;;;4839658;29;20054;-76
2021/11/14 19:03:55;;;;;;;15.95;10.63;;;17.60;75.30;;;;;;4844601;29;20476;-76
2021/11/14 19:06:22;;;;;;;15.70;10.95;;;17.60;75.10;;;;;;4844678;29;20080;-75
2021/11/14 19:08:50;;;;;;;16.33;10.13;;;17.60;75.10;;;;;;4845144;29;20132;-76
2021/11/14 19:11:16;;;;;;;15.07;10.73;;;17.60;75.20;;;;;;4844747;29;20058;-76
2021/11/14 19:13:43;;;;;;;15.45;10.07;;;17.50;75.10;;;;;;4844565;29;20045;-75
2021/11/14 19:16:09;;;;;;;16.95;10.15;;;17.50;75.10;;;;;;4845010;29;20065;-75
2021/11/14 19:18:35;;;;;;;16.55;10.27;;;17.50;75.00;;;;;;4844143;29;20050;-75
2021/11/14 19:21:01;;;;;;;14.60;9.95;;;17.50;75.10;;;;;;4844326;29;20046;-75
2021/11/14 19:23:27;;;;;;;23.50;11.27;;;17.50;75.10;;;;;;4826594;29;20143;-75
2021/11/14 19:25:53;;;;;;;13.35;9.73;;;17.50;75.10;;;;;;4826556;29;20460;-75
2021/11/14 19:28:19;;;;;;;16.67;11.05;;;17.50;75.10;;;;;;4827308;29;20054;-75
2021/11/14 19:30:45;;;;;;;17.65;11.48;;;17.50;75.10;;;;;;4826700;29;20122;-76
2021/11/14 19:33:13;;;;;;;19.27;10.57;;;17.40;75.00;;;;;;4826391;29;20054;-75
2021/11/14 19:35:39;;;;;;;15.70;10.38;;;17.40;75.10;;;;;;4826312;29;20054;-75
2021/11/14 19:38:06;;;;;;;17.75;10.90;;;17.40;75.10;;;;;;4826511;29;20420;-75
2021/11/14 19:40:35;;;;;;;15.07;10.98;;;17.30;74.20;;;;;;4843050;29;20100;-75
2021/11/14 19:43:01;;;;;;;15.00;10.82;;;17.30;75.00;;;;;;4844284;29;20054;-75
2021/11/14 19:45:28;;;;;;;15.70;10.40;;;17.30;75.20;;;;;;4844477;29;20129;-75
2021/11/14 19:47:54;;;;;;;17.10;10.77;;;17.30;75.20;;;;;;4828770;29;20053;-76
2021/11/14 19:50:20;;;;;;;19.05;10.98;;;17.40;75.10;;;;;;4844546;29;20057;-75
2021/11/14 19:52:47;;;;;;;17.15;10.30;;;17.30;75.10;;;;;;4844597;29;20056;-76
2021/11/14 19:55:14;;;;;;;14.35;10.68;;;17.30;75.20;;;;;;4844479;29;20054;-75